sensor_id;sensor_type;location;lat;lon;timestamp;temperature;humidity
4453;DHT22;2239;48.152;11.584;2023-09-12T00:01:16;21.10;99.90
4453;DHT22;2239;48.152;11.584;2023-09-12T00:03:41;21.00;99.90
4453;DHT22;2239;48.152;11.584;2023-09-12T00:06:07;21.00;99.90
4453;DHT22;2239;48.152;11.584;2023-09-12T00:08:32;20.90;99.90
4453;DHT22;2239;48.152;11.584;2023-09-12T00:11:02;20.90;99.90
4453;DHT22;2239;48.152;11.584;2023-09-12T00:13:29;20.90;99.90
4453;DHT22;2239;48.152;11.584;2023-09-12T00:15:54;20.80;99.90
4453;DHT22;2239;48.152;11.584;2023-09-12T00:18:20;20.80;99.90
4453;DHT22;2239;48.152;11.584;2023-09-12T00:20:46;20.80;99.90
4453;DHT22;2239;48.152;11.584;2023-09-12T00:23:11;20.70;99.90
4453;DHT22;2239;48.152;11.584;2023-09-12T00:25:37;20.70;99.90
4453;DHT22;2239;48.152;11.584;2023-09-12T00:28:02;20.60;99.90
4453;DHT22;2239;48.152;11.584;2023-09-12T00:30:28;20.60;99.90
4453;DHT22;2239;48.152;11.584;2023-09-12T00:32:53;20.50;99.90
4453;DHT22;2239;48.152;11.584;2023-09-12T00:35:19;20.50;99.90
4453;DHT22;2239;48.152;11.584;2023-09-12T00:37:44;20.50;99.90
4453;DHT22;2239;48.152;11.584;2023-09-12T00:40:10;20.60;99.90
4453;DHT22;2239;48.152;11.584;2023-09-12T00:42:36;20.60;99.90
4453;DHT22;2239;48.152;11.584;2023-09-12T00:45:01;20.50;99.90
4453;DHT22;2239;48.152;11.584;2023-09-12T00:47:28;20.50;99.90
4453;DHT22;2239;48.152;11.584;2023-09-12T00:49:55;20.50;99.90
4453;DHT22;2239;48.152;11.584;2023-09-12T00:52:25;20.50;99.90
4453;DHT22;2239;48.152;11.584;2023-09-12T00:54:52;20.50;99.90
4453;DHT22;2239;48.152;11.584;2023-09-12T00:57:18;20.40;99.90
4453;DHT22;2239;48.152;11.584;2023-09-12T00:59:44;20.30;99.90
4453;DHT22;2239;48.152;11.584;2023-09-12T01:02:09;20.30;99.90
4453;DHT22;2239;48.152;11.584;2023-09-12T01:04:36;20.30;99.90
4453;DHT22;2239;48.152;11.584;2023-09-12T01:07:05;20.30;99.90
4453;DHT22;2239;48.152;11.584;2023-09-12T01:09:32;20.30;99.90
4453;DHT22;2239;48.152;11.584;2023-09-12T01:11:58;20.30;99.90
4453;DHT22;2239;48.152;11.584;2023-09-12T01:14:24;20.30;99.90
4453;DHT22;2239;48.152;11.584;2023-09-12T01:16:49;20.20;99.90
4453;DHT22;2239;48.152;11.584;2023-09-12T01:19:16;20.20;99.90
4453;DHT22;2239;48.152;11.584;2023-09-12T01:22:09;20.10;99.90
4453;DHT22;2239;48.152;11.584;2023-09-12T01:27:27;20.00;99.90
4453;DHT22;2239;48.152;11.584;2023-09-12T01:29:57;20.00;99.90
4453;DHT22;2239;48.152;11.584;2023-09-12T01:32:23;20.00;99.90
4453;DHT22;2239;48.152;11.584;2023-09-12T01:34:48;20.00;99.90
4453;DHT22;2239;48.152;11.584;2023-09-12T01:37:14;19.90;99.90
4453;DHT22;2239;48.152;11.584;2023-09-12T01:39:40;19.90;99.90
4453;DHT22;2239;48.152;11.584;2023-09-12T01:42:08;19.80;99.90
4453;DHT22;2239;48.152;11.584;2023-09-12T01:44:37;19.80;99.90
4453;DHT22;2239;48.152;11.584;2023-09-12T01:47:04;19.80;99.90
4453;DHT22;2239;48.152;11.584;2023-09-12T01:49:31;19.80;99.90
4453;DHT22;2239;48.152;11.584;2023-09-12T01:51:58;19.80;99.90
4453;DHT22;2239;48.152;11.584;2023-09-12T01:54:26;19.80;99.90
4453;DHT22;2239;48.152;11.584;2023-09-12T01:56:52;19.80;99.90
4453;DHT22;2239;48.152;11.584;2023-09-12T01:59:18;19.80;99.90
4453;DHT22;2239;48.152;11.584;2023-09-12T02:01:44;19.80;99.90
4453;DHT22;2239;48.152;11.584;2023-09-12T02:04:09;19.70;99.90
4453;DHT22;2239;48.152;11.584;2023-09-12T02:06:35;19.70;99.90
4453;DHT22;2239;48.152;11.584;2023-09-12T02:09:01;19.70;99.90
4453;DHT22;2239;48.152;11.584;2023-09-12T02:11:27;19.70;99.90
4453;DHT22;2239;48.152;11.584;2023-09-12T02:13:53;19.70;99.90
4453;DHT22;2239;48.152;11.584;2023-09-12T02:16:18;19.70;99.90
4453;DHT22;2239;48.152;11.584;2023-09-12T02:18:44;19.70;99.90
4453;DHT22;2239;48.152;11.584;2023-09-12T02:21:09;19.70;99.90
4453;DHT22;2239;48.152;11.584;2023-09-12T02:23:35;19.80;99.90
4453;DHT22;2239;48.152;11.584;2023-09-12T02:26:00;19.70;99.90
4453;DHT22;2239;48.152;11.584;2023-09-12T02:28:26;19.70;99.90
4453;DHT22;2239;48.152;11.584;2023-09-12T02:30:51;19.70;99.90
4453;DHT22;2239;48.152;11.584;2023-09-12T02:33:17;19.60;99.90
4453;DHT22;2239;48.152;11.584;2023-09-12T02:35:42;19.70;99.90
4453;DHT22;2239;48.152;11.584;2023-09-12T02:38:09;19.60;99.90
4453;DHT22;2239;48.152;11.584;2023-09-12T02:40:34;19.50;99.90
4453;DHT22;2239;48.152;11.584;2023-09-12T02:43:00;19.50;99.90
4453;DHT22;2239;48.152;11.584;2023-09-12T02:45:26;19.50;99.90
4453;DHT22;2239;48.152;11.584;2023-09-12T02:47:51;19.50;99.90
4453;DHT22;2239;48.152;11.584;2023-09-12T02:50:17;19.40;99.90
4453;DHT22;2239;48.152;11.584;2023-09-12T02:52:42;19.40;99.90
4453;DHT22;2239;48.152;11.584;2023-09-12T02:55:08;19.40;99.90
4453;DHT22;2239;48.152;11.584;2023-09-12T02:57:34;19.40;99.90
4453;DHT22;2239;48.152;11.584;2023-09-12T02:59:59;19.30;99.90
4453;DHT22;2239;48.152;11.584;2023-09-12T03:02:25;19.30;99.90
4453;DHT22;2239;48.152;11.584;2023-09-12T03:04:51;19.30;99.90
4453;DHT22;2239;48.152;11.584;2023-09-12T03:07:16;19.30;99.90
4453;DHT22;2239;48.152;11.584;2023-09-12T03:09:42;19.20;99.90
4453;DHT22;2239;48.152;11.584;2023-09-12T03:12:07;19.20;99.90
4453;DHT22;2239;48.152;11.584;2023-09-12T03:14:33;19.20;99.90
4453;DHT22;2239;48.152;11.584;2023-09-12T03:16:58;19.20;99.90
4453;DHT22;2239;48.152;11.584;2023-09-12T03:19:24;19.10;99.90
4453;DHT22;2239;48.152;11.584;2023-09-12T03:21:49;19.00;99.90
4453;DHT22;2239;48.152;11.584;2023-09-12T03:24:15;19.00;99.90
4453;DHT22;2239;48.152;11.584;2023-09-12T03:26:43;19.00;99.90
4453;DHT22;2239;48.152;11.584;2023-09-12T03:29:12;19.00;99.90
4453;DHT22;2239;48.152;11.584;2023-09-12T03:31:37;19.00;99.90
4453;DHT22;2239;48.152;11.584;2023-09-12T03:34:03;18.90;99.90
4453;DHT22;2239;48.152;11.584;2023-09-12T03:36:28;18.90;99.90
4453;DHT22;2239;48.152;11.584;2023-09-12T03:38:54;18.80;99.90
4453;DHT22;2239;48.152;11.584;2023-09-12T03:41:20;18.80;99.90
4453;DHT22;2239;48.152;11.584;2023-09-12T03:43:47;18.70;99.90
4453;DHT22;2239;48.152;11.584;2023-09-12T03:46:13;18.70;99.90
4453;DHT22;2239;48.152;11.584;2023-09-12T03:48:39;18.70;99.90
4453;DHT22;2239;48.152;11.584;2023-09-12T03:51:04;18.70;99.90
4453;DHT22;2239;48.152;11.584;2023-09-12T03:53:30;18.80;99.90
4453;DHT22;2239;48.152;11.584;2023-09-12T03:55:55;18.80;99.90
4453;DHT22;2239;48.152;11.584;2023-09-12T03:58:21;18.70;99.90
4453;DHT22;2239;48.152;11.584;2023-09-12T04:00:47;18.70;99.90
4453;DHT22;2239;48.152;11.584;2023-09-12T04:03:12;18.70;99.90
4453;DHT22;2239;48.152;11.584;2023-09-12T04:05:38;18.70;99.90
4453;DHT22;2239;48.152;11.584;2023-09-12T04:08:04;18.60;99.90
4453;DHT22;2239;48.152;11.584;2023-09-12T04:10:29;18.70;99.90
4453;DHT22;2239;48.152;11.584;2023-09-12T04:12:55;18.60;99.90
4453;DHT22;2239;48.152;11.584;2023-09-12T04:15:20;18.60;99.90
4453;DHT22;2239;48.152;11.584;2023-09-12T04:17:46;18.60;99.90
4453;DHT22;2239;48.152;11.584;2023-09-12T04:20:12;18.60;99.90
4453;DHT22;2239;48.152;11.584;2023-09-12T04:22:43;18.60;99.90
4453;DHT22;2239;48.152;11.584;2023-09-12T04:25:09;18.60;99.90
4453;DHT22;2239;48.152;11.584;2023-09-12T04:27:34;18.60;99.90
4453;DHT22;2239;48.152;11.584;2023-09-12T04:30:00;18.60;99.90
4453;DHT22;2239;48.152;11.584;2023-09-12T04:32:25;18.60;99.90
4453;DHT22;2239;48.152;11.584;2023-09-12T04:34:51;18.50;99.90
4453;DHT22;2239;48.152;11.584;2023-09-12T04:37:17;18.60;99.90
4453;DHT22;2239;48.152;11.584;2023-09-12T04:39:43;18.50;99.90
4453;DHT22;2239;48.152;11.584;2023-09-12T04:42:08;18.50;99.90
4453;DHT22;2239;48.152;11.584;2023-09-12T04:44:40;18.50;99.90
4453;DHT22;2239;48.152;11.584;2023-09-12T04:47:06;18.40;99.90
4453;DHT22;2239;48.152;11.584;2023-09-12T04:49:31;18.40;99.90
4453;DHT22;2239;48.152;11.584;2023-09-12T04:51:57;18.40;99.90
4453;DHT22;2239;48.152;11.584;2023-09-12T04:54:23;18.40;99.90
4453;DHT22;2239;48.152;11.584;2023-09-12T04:56:48;18.50;99.90
4453;DHT22;2239;48.152;11.584;2023-09-12T04:59:14;18.40;99.90
4453;DHT22;2239;48.152;11.584;2023-09-12T05:01:40;18.40;99.90
4453;DHT22;2239;48.152;11.584;2023-09-12T05:04:05;18.40;99.90
4453;DHT22;2239;48.152;11.584;2023-09-12T05:06:31;18.50;99.90
4453;DHT22;2239;48.152;11.584;2023-09-12T05:08:56;18.50;99.90
4453;DHT22;2239;48.152;11.584;2023-09-12T05:11:22;18.50;99.90
4453;DHT22;2239;48.152;11.584;2023-09-12T05:13:51;18.50;99.90
4453;DHT22;2239;48.152;11.584;2023-09-12T05:16:17;18.50;99.90
4453;DHT22;2239;48.152;11.584;2023-09-12T05:18:42;18.50;99.90
4453;DHT22;2239;48.152;11.584;2023-09-12T05:21:08;18.60;99.90
4453;DHT22;2239;48.152;11.584;2023-09-12T05:23:34;18.60;99.90
4453;DHT22;2239;48.152;11.584;2023-09-12T05:25:59;18.60;99.90
4453;DHT22;2239;48.152;11.584;2023-09-12T05:28:25;18.70;99.90
4453;DHT22;2239;48.152;11.584;2023-09-12T05:30:50;18.60;99.90
4453;DHT22;2239;48.152;11.584;2023-09-12T05:33:16;18.70;99.90
4453;DHT22;2239;48.152;11.584;2023-09-12T05:35:42;18.80;99.90
4453;DHT22;2239;48.152;11.584;2023-09-12T05:38:09;18.90;99.90
4453;DHT22;2239;48.152;11.584;2023-09-12T05:40:35;18.90;99.90
4453;DHT22;2239;48.152;11.584;2023-09-12T05:43:00;18.90;99.90
4453;DHT22;2239;48.152;11.584;2023-09-12T05:45:27;19.00;99.90
4453;DHT22;2239;48.152;11.584;2023-09-12T05:47:54;19.10;99.90
4453;DHT22;2239;48.152;11.584;2023-09-12T05:50:20;19.20;99.90
4453;DHT22;2239;48.152;11.584;2023-09-12T05:52:46;19.20;99.90
4453;DHT22;2239;48.152;11.584;2023-09-12T05:55:11;19.40;99.90
4453;DHT22;2239;48.152;11.584;2023-09-12T05:57:37;19.50;99.90
4453;DHT22;2239;48.152;11.584;2023-09-12T06:00:02;19.60;99.90
4453;DHT22;2239;48.152;11.584;2023-09-12T06:02:35;19.80;99.90
4453;DHT22;2239;48.152;11.584;2023-09-12T06:05:01;19.90;99.90
4453;DHT22;2239;48.152;11.584;2023-09-12T06:07:26;20.00;99.90
4453;DHT22;2239;48.152;11.584;2023-09-12T06:09:52;20.10;99.90
4453;DHT22;2239;48.152;11.584;2023-09-12T06:12:17;20.20;99.90
4453;DHT22;2239;48.152;11.584;2023-09-12T06:14:43;20.40;99.90
4453;DHT22;2239;48.152;11.584;2023-09-12T06:17:09;20.50;99.90
4453;DHT22;2239;48.152;11.584;2023-09-12T06:19:35;20.60;99.90
4453;DHT22;2239;48.152;11.584;2023-09-12T06:22:00;20.70;99.90
4453;DHT22;2239;48.152;11.584;2023-09-12T06:24:26;20.80;99.90
4453;DHT22;2239;48.152;11.584;2023-09-12T06:26:51;21.00;99.90
4453;DHT22;2239;48.152;11.584;2023-09-12T06:29:17;21.00;99.90
4453;DHT22;2239;48.152;11.584;2023-09-12T06:31:43;21.20;99.90
4453;DHT22;2239;48.152;11.584;2023-09-12T06:34:09;21.40;99.90
4453;DHT22;2239;48.152;11.584;2023-09-12T06:36:34;21.50;99.90
4453;DHT22;2239;48.152;11.584;2023-09-12T06:39:00;21.70;99.90
4453;DHT22;2239;48.152;11.584;2023-09-12T06:41:26;21.80;99.90
4453;DHT22;2239;48.152;11.584;2023-09-12T06:43:52;21.90;99.90
4453;DHT22;2239;48.152;11.584;2023-09-12T06:46:18;22.00;99.90
4453;DHT22;2239;48.152;11.584;2023-09-12T06:48:45;22.10;99.90
4453;DHT22;2239;48.152;11.584;2023-09-12T06:51:14;22.20;99.90
4453;DHT22;2239;48.152;11.584;2023-09-12T06:53:40;22.20;99.90
4453;DHT22;2239;48.152;11.584;2023-09-12T06:56:05;22.30;99.90
4453;DHT22;2239;48.152;11.584;2023-09-12T06:58:31;22.50;99.90
4453;DHT22;2239;48.152;11.584;2023-09-12T07:01:04;22.70;99.90
4453;DHT22;2239;48.152;11.584;2023-09-12T07:03:32;22.90;99.90
4453;DHT22;2239;48.152;11.584;2023-09-12T07:05:57;23.10;99.90
4453;DHT22;2239;48.152;11.584;2023-09-12T07:08:23;23.40;99.90
4453;DHT22;2239;48.152;11.584;2023-09-12T07:10:48;23.50;99.90
4453;DHT22;2239;48.152;11.584;2023-09-12T07:13:14;23.70;99.90
4453;DHT22;2239;48.152;11.584;2023-09-12T07:15:40;23.80;99.90
4453;DHT22;2239;48.152;11.584;2023-09-12T07:18:06;24.00;99.90
4453;DHT22;2239;48.152;11.584;2023-09-12T07:20:32;24.20;99.90
4453;DHT22;2239;48.152;11.584;2023-09-12T07:22:57;24.50;99.90
4453;DHT22;2239;48.152;11.584;2023-09-12T07:25:23;24.80;99.90
4453;DHT22;2239;48.152;11.584;2023-09-12T07:27:49;25.10;99.90
4453;DHT22;2239;48.152;11.584;2023-09-12T07:30:15;25.40;99.90
4453;DHT22;2239;48.152;11.584;2023-09-12T07:32:41;25.50;99.90
4453;DHT22;2239;48.152;11.584;2023-09-12T07:35:07;25.70;99.70
4453;DHT22;2239;48.152;11.584;2023-09-12T07:37:33;25.90;99.50
4453;DHT22;2239;48.152;11.584;2023-09-12T07:39:58;26.20;98.60
4453;DHT22;2239;48.152;11.584;2023-09-12T07:42:24;26.60;98.40
4453;DHT22;2239;48.152;11.584;2023-09-12T07:44:50;26.90;97.70
4453;DHT22;2239;48.152;11.584;2023-09-12T07:47:16;27.10;96.80
4453;DHT22;2239;48.152;11.584;2023-09-12T07:49:41;27.30;95.90
4453;DHT22;2239;48.152;11.584;2023-09-12T07:52:07;27.60;96.10
4453;DHT22;2239;48.152;11.584;2023-09-12T07:54:33;27.80;95.70
4453;DHT22;2239;48.152;11.584;2023-09-12T07:56:58;28.00;95.20
4453;DHT22;2239;48.152;11.584;2023-09-12T07:59:24;28.20;94.60
4453;DHT22;2239;48.152;11.584;2023-09-12T08:01:50;28.10;94.00
4453;DHT22;2239;48.152;11.584;2023-09-12T08:04:16;28.10;93.50
4453;DHT22;2239;48.152;11.584;2023-09-12T08:06:42;28.30;93.30
4453;DHT22;2239;48.152;11.584;2023-09-12T08:09:09;28.60;92.80
4453;DHT22;2239;48.152;11.584;2023-09-12T08:11:35;28.70;92.50
4453;DHT22;2239;48.152;11.584;2023-09-12T08:14:01;28.80;92.30
4453;DHT22;2239;48.152;11.584;2023-09-12T08:16:26;29.10;92.20
4453;DHT22;2239;48.152;11.584;2023-09-12T08:18:52;29.30;91.20
4453;DHT22;2239;48.152;11.584;2023-09-12T08:21:17;29.40;91.00
4453;DHT22;2239;48.152;11.584;2023-09-12T08:23:43;29.70;90.90
4453;DHT22;2239;48.152;11.584;2023-09-12T08:26:09;30.00;90.10
4453;DHT22;2239;48.152;11.584;2023-09-12T08:28:35;30.30;90.30
4453;DHT22;2239;48.152;11.584;2023-09-12T08:31:01;30.60;89.90
4453;DHT22;2239;48.152;11.584;2023-09-12T08:33:26;30.60;89.70
4453;DHT22;2239;48.152;11.584;2023-09-12T08:35:52;30.80;88.70
4453;DHT22;2239;48.152;11.584;2023-09-12T08:38:17;30.90;87.20
4453;DHT22;2239;48.152;11.584;2023-09-12T08:40:49;31.10;86.10
4453;DHT22;2239;48.152;11.584;2023-09-12T08:43:20;31.00;86.90
4453;DHT22;2239;48.152;11.584;2023-09-12T08:45:46;31.00;87.40
4453;DHT22;2239;48.152;11.584;2023-09-12T08:48:12;30.90;85.10
4453;DHT22;2239;48.152;11.584;2023-09-12T08:50:39;30.80;86.30
4453;DHT22;2239;48.152;11.584;2023-09-12T08:53:04;30.70;85.30
4453;DHT22;2239;48.152;11.584;2023-09-12T08:55:31;30.80;85.40
4453;DHT22;2239;48.152;11.584;2023-09-12T08:57:59;31.10;83.00
4453;DHT22;2239;48.152;11.584;2023-09-12T09:00:25;31.50;82.40
4453;DHT22;2239;48.152;11.584;2023-09-12T09:02:53;31.80;82.40
4453;DHT22;2239;48.152;11.584;2023-09-12T09:05:20;32.10;80.90
4453;DHT22;2239;48.152;11.584;2023-09-12T09:07:46;31.90;76.60
4453;DHT22;2239;48.152;11.584;2023-09-12T09:10:17;31.50;77.60
4453;DHT22;2239;48.152;11.584;2023-09-12T09:12:45;31.40;78.50
4453;DHT22;2239;48.152;11.584;2023-09-12T09:15:28;31.30;79.00
4453;DHT22;2239;48.152;11.584;2023-09-12T09:17:55;31.30;78.20
4453;DHT22;2239;48.152;11.584;2023-09-12T09:20:22;31.30;76.90
4453;DHT22;2239;48.152;11.584;2023-09-12T09:22:59;31.30;78.30
4453;DHT22;2239;48.152;11.584;2023-09-12T09:25:25;31.40;77.70
4453;DHT22;2239;48.152;11.584;2023-09-12T09:27:51;31.30;77.60
4453;DHT22;2239;48.152;11.584;2023-09-12T09:30:16;31.60;78.00
4453;DHT22;2239;48.152;11.584;2023-09-12T09:32:43;31.70;78.50
4453;DHT22;2239;48.152;11.584;2023-09-12T09:35:11;31.90;76.70
4453;DHT22;2239;48.152;11.584;2023-09-12T09:37:37;32.10;75.50
4453;DHT22;2239;48.152;11.584;2023-09-12T09:40:06;32.20;73.00
4453;DHT22;2239;48.152;11.584;2023-09-12T09:42:32;32.00;71.80
4453;DHT22;2239;48.152;11.584;2023-09-12T09:44:58;31.70;73.70
4453;DHT22;2239;48.152;11.584;2023-09-12T09:47:23;31.90;75.40
4453;DHT22;2239;48.152;11.584;2023-09-12T09:49:51;32.10;74.60
4453;DHT22;2239;48.152;11.584;2023-09-12T09:52:25;32.40;74.50
4453;DHT22;2239;48.152;11.584;2023-09-12T09:54:52;32.40;73.60
4453;DHT22;2239;48.152;11.584;2023-09-12T09:57:17;32.00;71.70
4453;DHT22;2239;48.152;11.584;2023-09-12T09:59:48;31.80;73.60
4453;DHT22;2239;48.152;11.584;2023-09-12T10:02:17;31.80;71.70
4453;DHT22;2239;48.152;11.584;2023-09-12T10:04:45;31.80;71.80
4453;DHT22;2239;48.152;11.584;2023-09-12T10:07:12;31.70;72.10
4453;DHT22;2239;48.152;11.584;2023-09-12T10:09:40;31.70;72.20
4453;DHT22;2239;48.152;11.584;2023-09-12T10:12:07;31.70;71.20
4453;DHT22;2239;48.152;11.584;2023-09-12T10:14:33;31.60;71.10
4453;DHT22;2239;48.152;11.584;2023-09-12T10:17:01;31.70;70.30
4453;DHT22;2239;48.152;11.584;2023-09-12T10:19:55;31.60;69.60
4453;DHT22;2239;48.152;11.584;2023-09-12T10:22:28;31.60;69.80
4453;DHT22;2239;48.152;11.584;2023-09-12T10:24:56;31.80;69.80
4453;DHT22;2239;48.152;11.584;2023-09-12T10:27:24;32.00;68.40
4453;DHT22;2239;48.152;11.584;2023-09-12T10:29:50;32.30;67.80
4453;DHT22;2239;48.152;11.584;2023-09-12T10:32:19;32.20;68.20
4453;DHT22;2239;48.152;11.584;2023-09-12T10:34:49;32.10;66.70
4453;DHT22;2239;48.152;11.584;2023-09-12T10:37:19;31.70;65.10
4453;DHT22;2239;48.152;11.584;2023-09-12T10:39:47;31.70;67.40
4453;DHT22;2239;48.152;11.584;2023-09-12T10:42:16;31.80;67.50
4453;DHT22;2239;48.152;11.584;2023-09-12T10:44:43;32.00;66.60
4453;DHT22;2239;48.152;11.584;2023-09-12T10:47:09;32.00;65.90
4453;DHT22;2239;48.152;11.584;2023-09-12T10:49:35;31.90;65.50
4453;DHT22;2239;48.152;11.584;2023-09-12T10:52:03;31.80;67.00
4453;DHT22;2239;48.152;11.584;2023-09-12T10:54:39;31.90;67.00
4453;DHT22;2239;48.152;11.584;2023-09-12T10:57:09;31.90;66.20
4453;DHT22;2239;48.152;11.584;2023-09-12T11:02:37;32.30;66.40
4453;DHT22;2239;48.152;11.584;2023-09-12T11:05:34;32.50;65.50
4453;DHT22;2239;48.152;11.584;2023-09-12T11:07:50;32.80;63.90
4453;DHT22;2239;48.152;11.584;2023-09-12T11:10:17;32.80;65.10
4453;DHT22;2239;48.152;11.584;2023-09-12T11:12:51;32.70;63.50
4453;DHT22;2239;48.152;11.584;2023-09-12T11:15:19;32.40;62.50
4453;DHT22;2239;48.152;11.584;2023-09-12T11:17:49;32.30;64.40
4453;DHT22;2239;48.152;11.584;2023-09-12T11:20:16;32.30;64.10
4453;DHT22;2239;48.152;11.584;2023-09-12T11:22:46;32.20;62.80
4453;DHT22;2239;48.152;11.584;2023-09-12T11:25:23;32.40;61.80
4453;DHT22;2239;48.152;11.584;2023-09-12T11:30:18;32.80;59.30
4453;DHT22;2239;48.152;11.584;2023-09-12T11:32:46;32.80;58.90
4453;DHT22;2239;48.152;11.584;2023-09-12T11:35:13;32.60;57.50
4453;DHT22;2239;48.152;11.584;2023-09-12T11:37:39;32.40;58.10
4453;DHT22;2239;48.152;11.584;2023-09-12T11:40:26;32.30;59.00
4453;DHT22;2239;48.152;11.584;2023-09-12T11:43:06;32.40;59.90
4453;DHT22;2239;48.152;11.584;2023-09-12T11:45:32;32.40;59.70
4453;DHT22;2239;48.152;11.584;2023-09-12T11:47:58;32.30;58.30
4453;DHT22;2239;48.152;11.584;2023-09-12T11:50:30;32.30;58.40
4453;DHT22;2239;48.152;11.584;2023-09-12T11:53:04;32.20;59.10
4453;DHT22;2239;48.152;11.584;2023-09-12T11:55:35;32.10;57.50
4453;DHT22;2239;48.152;11.584;2023-09-12T11:58:01;31.80;57.60
4453;DHT22;2239;48.152;11.584;2023-09-12T12:00:28;31.70;58.00
4453;DHT22;2239;48.152;11.584;2023-09-12T12:02:54;31.40;58.80
4453;DHT22;2239;48.152;11.584;2023-09-12T12:05:20;31.40;59.90
4453;DHT22;2239;48.152;11.584;2023-09-12T12:07:47;31.50;59.60
4453;DHT22;2239;48.152;11.584;2023-09-12T12:10:14;31.50;59.40
4453;DHT22;2239;48.152;11.584;2023-09-12T12:12:39;31.50;59.60
4453;DHT22;2239;48.152;11.584;2023-09-12T12:15:10;31.70;59.00
4453;DHT22;2239;48.152;11.584;2023-09-12T12:17:37;31.60;58.70
4453;DHT22;2239;48.152;11.584;2023-09-12T12:20:07;32.00;59.30
4453;DHT22;2239;48.152;11.584;2023-09-12T12:22:36;32.30;59.10
4453;DHT22;2239;48.152;11.584;2023-09-12T12:25:09;32.30;58.90
4453;DHT22;2239;48.152;11.584;2023-09-12T12:27:39;32.20;57.90
4453;DHT22;2239;48.152;11.584;2023-09-12T12:30:10;32.20;58.30
4453;DHT22;2239;48.152;11.584;2023-09-12T12:32:39;32.50;59.10
4453;DHT22;2239;48.152;11.584;2023-09-12T12:35:06;32.60;57.00
4453;DHT22;2239;48.152;11.584;2023-09-12T12:37:32;32.50;56.90
4453;DHT22;2239;48.152;11.584;2023-09-12T12:39:59;32.40;57.60
4453;DHT22;2239;48.152;11.584;2023-09-12T12:42:33;32.30;57.50
4453;DHT22;2239;48.152;11.584;2023-09-12T12:44:59;32.50;57.50
4453;DHT22;2239;48.152;11.584;2023-09-12T12:47:25;32.60;56.40
4453;DHT22;2239;48.152;11.584;2023-09-12T12:49:52;32.60;56.70
4453;DHT22;2239;48.152;11.584;2023-09-12T12:52:22;32.50;56.30
4453;DHT22;2239;48.152;11.584;2023-09-12T12:54:49;32.50;56.30
4453;DHT22;2239;48.152;11.584;2023-09-12T12:57:19;32.50;56.20
4453;DHT22;2239;48.152;11.584;2023-09-12T12:59:47;32.70;56.40
4453;DHT22;2239;48.152;11.584;2023-09-12T13:02:12;33.00;54.80
4453;DHT22;2239;48.152;11.584;2023-09-12T13:04:38;33.10;52.80
4453;DHT22;2239;48.152;11.584;2023-09-12T13:07:04;33.40;50.20
4453;DHT22;2239;48.152;11.584;2023-09-12T13:09:30;33.60;49.90
4453;DHT22;2239;48.152;11.584;2023-09-12T13:11:56;33.60;50.30
4453;DHT22;2239;48.152;11.584;2023-09-12T13:14:22;33.40;50.50
4453;DHT22;2239;48.152;11.584;2023-09-12T13:16:55;33.40;52.90
4453;DHT22;2239;48.152;11.584;2023-09-12T13:19:20;33.10;54.40
4453;DHT22;2239;48.152;11.584;2023-09-12T13:21:46;33.00;54.30
4453;DHT22;2239;48.152;11.584;2023-09-12T13:24:11;32.70;55.00
4453;DHT22;2239;48.152;11.584;2023-09-12T13:26:38;32.70;55.20
4453;DHT22;2239;48.152;11.584;2023-09-12T13:29:05;32.70;55.20
4453;DHT22;2239;48.152;11.584;2023-09-12T13:31:31;32.80;55.30
4453;DHT22;2239;48.152;11.584;2023-09-12T13:33:57;32.70;54.80
4453;DHT22;2239;48.152;11.584;2023-09-12T13:36:23;32.70;55.20
4453;DHT22;2239;48.152;11.584;2023-09-12T13:38:51;33.10;54.80
4453;DHT22;2239;48.152;11.584;2023-09-12T13:41:18;33.30;53.80
4453;DHT22;2239;48.152;11.584;2023-09-12T13:43:43;33.10;53.10
4453;DHT22;2239;48.152;11.584;2023-09-12T13:46:12;33.00;53.30
4453;DHT22;2239;48.152;11.584;2023-09-12T13:48:38;33.10;53.80
4453;DHT22;2239;48.152;11.584;2023-09-12T13:51:03;33.10;53.90
4453;DHT22;2239;48.152;11.584;2023-09-12T13:53:29;33.00;54.60
4453;DHT22;2239;48.152;11.584;2023-09-12T13:55:55;32.70;54.40
4453;DHT22;2239;48.152;11.584;2023-09-12T13:58:22;32.70;53.50
4453;DHT22;2239;48.152;11.584;2023-09-12T14:00:48;32.80;53.80
4453;DHT22;2239;48.152;11.584;2023-09-12T14:03:14;32.80;54.90
4453;DHT22;2239;48.152;11.584;2023-09-12T14:05:40;32.80;56.20
4453;DHT22;2239;48.152;11.584;2023-09-12T14:08:05;32.50;55.70
4453;DHT22;2239;48.152;11.584;2023-09-12T14:10:31;32.40;56.50
4453;DHT22;2239;48.152;11.584;2023-09-12T14:12:57;32.20;57.10
4453;DHT22;2239;48.152;11.584;2023-09-12T14:15:22;32.20;57.00
4453;DHT22;2239;48.152;11.584;2023-09-12T14:17:48;32.20;55.00
4453;DHT22;2239;48.152;11.584;2023-09-12T14:20:14;32.10;54.20
4453;DHT22;2239;48.152;11.584;2023-09-12T14:22:41;32.00;55.50
4453;DHT22;2239;48.152;11.584;2023-09-12T14:25:08;32.00;56.60
4453;DHT22;2239;48.152;11.584;2023-09-12T14:27:34;31.80;57.70
4453;DHT22;2239;48.152;11.584;2023-09-12T14:29:59;31.60;59.00
4453;DHT22;2239;48.152;11.584;2023-09-12T14:32:25;31.40;59.60
4453;DHT22;2239;48.152;11.584;2023-09-12T14:34:51;31.30;60.80
4453;DHT22;2239;48.152;11.584;2023-09-12T14:37:17;31.20;62.20
4453;DHT22;2239;48.152;11.584;2023-09-12T14:39:42;31.00;63.10
4453;DHT22;2239;48.152;11.584;2023-09-12T14:42:08;30.80;63.50
4453;DHT22;2239;48.152;11.584;2023-09-12T14:44:35;30.50;64.20
4453;DHT22;2239;48.152;11.584;2023-09-12T14:47:00;30.40;65.30
4453;DHT22;2239;48.152;11.584;2023-09-12T14:49:26;30.40;65.60
4453;DHT22;2239;48.152;11.584;2023-09-12T14:51:51;30.30;66.20
4453;DHT22;2239;48.152;11.584;2023-09-12T14:54:17;30.30;67.00
4453;DHT22;2239;48.152;11.584;2023-09-12T14:56:42;30.40;67.70
4453;DHT22;2239;48.152;11.584;2023-09-12T14:59:08;30.50;66.50
4453;DHT22;2239;48.152;11.584;2023-09-12T15:01:34;30.50;67.00
4453;DHT22;2239;48.152;11.584;2023-09-12T15:04:00;30.50;67.30
4453;DHT22;2239;48.152;11.584;2023-09-12T15:06:26;30.50;67.30
4453;DHT22;2239;48.152;11.584;2023-09-12T15:08:52;30.40;67.20
4453;DHT22;2239;48.152;11.584;2023-09-12T15:11:18;30.40;67.00
4453;DHT22;2239;48.152;11.584;2023-09-12T15:13:44;30.30;67.50
4453;DHT22;2239;48.152;11.584;2023-09-12T15:16:11;30.40;67.50
4453;DHT22;2239;48.152;11.584;2023-09-12T15:18:37;30.30;68.00
4453;DHT22;2239;48.152;11.584;2023-09-12T15:21:05;30.20;67.50
4453;DHT22;2239;48.152;11.584;2023-09-12T15:23:31;30.20;67.50
4453;DHT22;2239;48.152;11.584;2023-09-12T15:25:56;30.20;67.30
4453;DHT22;2239;48.152;11.584;2023-09-12T15:28:22;30.10;67.40
4453;DHT22;2239;48.152;11.584;2023-09-12T15:30:47;30.20;68.00
4453;DHT22;2239;48.152;11.584;2023-09-12T15:33:13;30.20;67.80
4453;DHT22;2239;48.152;11.584;2023-09-12T15:35:39;30.10;68.60
4453;DHT22;2239;48.152;11.584;2023-09-12T15:38:05;30.00;68.90
4453;DHT22;2239;48.152;11.584;2023-09-12T15:40:32;30.00;69.00
4453;DHT22;2239;48.152;11.584;2023-09-12T15:42:57;29.80;69.10
4453;DHT22;2239;48.152;11.584;2023-09-12T15:45:23;29.80;69.20
4453;DHT22;2239;48.152;11.584;2023-09-12T15:47:48;29.80;69.50
4453;DHT22;2239;48.152;11.584;2023-09-12T15:50:15;29.60;69.70